Time,TemperatureF,DewpointF,PressureIn,WindDirection,WindDirectionDegrees,WindSpeedMPH,WindSpeedGustMPH,Humidity,HourlyPrecipIn,Conditions,Clouds,dailyrainin,SoftwareType,DateUTC
2013-01-17 00:02:00,28.0,2.0,30.39,NNW,336,5.0,6.0,32,-99.99,,,-99.99,,2013-01-17 07:02:00,
2013-01-17 00:12:00,31.0,1.0,30.40,North,4,6.0,7.0,27,-99.99,,,-99.99,,2013-01-17 07:12:00,
2013-01-17 00:22:00,31.0,1.0,30.40,NNE,18,6.0,7.0,27,-99.99,,,-99.99,,2013-01-17 07:22:00,
2013-01-17 00:32:00,31.0,1.0,30.40,NNE,21,5.0,5.0,27,-99.99,,,-99.99,,2013-01-17 07:32:00,
2013-01-17 00:42:00,30.0,1.0,30.40,North,10,6.0,6.0,28,-99.99,,,-99.99,,2013-01-17 07:42:00,
2013-01-17 00:52:00,29.0,1.0,30.40,North,1,5.0,5.0,29,-99.99,,,-99.99,,2013-01-17 07:52:00,
2013-01-17 01:02:00,28.0,2.0,30.40,NNW,344,5.0,6.0,32,-99.99,,,-99.99,,2013-01-17 08:02:00,
2013-01-17 01:12:00,27.0,2.0,30.40,North,349,5.0,6.0,33,-99.99,,,-99.99,,2013-01-17 08:12:00,
2013-01-17 01:22:00,28.0,1.0,30.40,NNW,336,3.0,5.0,31,-99.99,,,-99.99,,2013-01-17 08:22:00,
2013-01-17 01:32:00,27.0,2.0,30.40,NNW,340,5.0,6.0,33,-99.99,,,-99.99,,2013-01-17 08:32:00,
2013-01-17 01:43:00,27.0,3.0,30.41,NNW,344,5.0,6.0,34,-99.99,,,-99.99,,2013-01-17 08:43:00,
2013-01-17 01:52:00,26.0,2.0,30.41,North,0,3.0,5.0,35,-99.99,,,-99.99,,2013-01-17 08:52:00,
2013-01-17 02:02:00,26.0,2.0,30.40,ENE,73,3.0,3.0,35,-99.99,,,-99.99,,2013-01-17 09:02:00,
2013-01-17 02:12:00,26.0,2.0,30.40,East,79,5.0,6.0,34,-99.99,,,-99.99,,2013-01-17 09:12:00,
2013-01-17 02:22:00,28.0,2.0,30.40,East,81,3.0,5.0,32,-99.99,,,-99.99,,2013-01-17 09:22:00,
2013-01-17 02:32:00,26.0,1.0,30.41,ESE,118,3.0,5.0,34,-99.99,,,-99.99,,2013-01-17 09:32:00,
2013-01-17 02:42:00,26.0,1.0,30.41,North,0,0.0,2.0,34,-99.99,,,-99.99,,2013-01-17 09:42:00,
2013-01-17 02:52:00,26.0,2.0,30.41,North,0,0.0,2.0,36,-99.99,,,-99.99,,2013-01-17 09:52:00,
2013-01-17 03:02:00,24.0,3.0,30.41,North,0,0.0,2.0,39,-99.99,,,-99.99,,2013-01-17 10:02:00,
2013-01-17 03:12:00,23.0,4.0,30.41,SW,235,2.0,2.0,43,-99.99,,,-99.99,,2013-01-17 10:12:00,
2013-01-17 03:22:00,23.0,4.0,30.42,SW,224,2.0,3.0,43,-99.99,,,-99.99,,2013-01-17 10:22:00,
2013-01-17 03:32:00,23.0,4.0,30.42,West,275,3.0,3.0,43,-99.99,,,-99.99,,2013-01-17 10:32:00,
2013-01-17 03:42:00,24.0,4.0,30.42,NW,308,3.0,3.0,41,-99.99,,,-99.99,,2013-01-17 10:42:00,
2013-01-17 03:52:00,24.0,3.0,30.42,NW,322,3.0,3.0,40,-99.99,,,-99.99,,2013-01-17 10:52:00,
2013-01-17 04:02:00,25.0,4.0,30.42,NNW,346,3.0,5.0,39,-99.99,,,-99.99,,2013-01-17 11:02:00,
2013-01-17 04:12:00,26.0,4.0,30.42,NNW,339,6.0,7.0,38,-99.99,,,-99.99,,2013-01-17 11:12:00,
2013-01-17 04:22:00,26.0,5.0,30.42,NNW,340,6.0,7.0,40,-99.99,,,-99.99,,2013-01-17 11:22:00,
2013-01-17 04:33:00,25.0,5.0,30.42,NNW,344,6.0,7.0,41,-99.99,,,-99.99,,2013-01-17 11:33:00,
2013-01-17 04:42:00,26.0,4.0,30.42,North,9,8.0,9.0,39,-99.99,,,-99.99,,2013-01-17 11:42:00,
2013-01-17 04:52:00,26.0,4.0,30.42,NNW,336,5.0,7.0,38,-99.99,,,-99.99,,2013-01-17 11:52:00,
2013-01-17 05:02:00,23.0,5.0,30.42,NNW,329,3.0,3.0,46,-99.99,,,-99.99,,2013-01-17 12:02:00,
2013-01-17 05:12:00,22.0,5.0,30.42,North,7,5.0,7.0,46,-99.99,,,-99.99,,2013-01-17 12:12:00,
2013-01-17 05:22:00,23.0,5.0,30.42,NNW,332,5.0,6.0,45,-99.99,,,-99.99,,2013-01-17 12:22:00,
2013-01-17 05:32:00,24.0,5.0,30.42,North,5,6.0,7.0,44,-99.99,,,-99.99,,2013-01-17 12:32:00,
2013-01-17 05:42:00,23.0,5.0,30.42,NNE,17,7.0,7.0,44,-99.99,,,-99.99,,2013-01-17 12:42:00,
2013-01-17 05:52:00,25.0,4.0,30.42,NNE,24,6.0,6.0,41,-99.99,,,-99.99,,2013-01-17 12:52:00,
2013-01-17 06:03:00,24.0,5.0,30.43,NNE,26,5.0,6.0,43,-99.99,,,-99.99,,2013-01-17 13:03:00,
2013-01-17 06:12:00,24.0,5.0,30.43,NNE,21,8.0,9.0,42,-99.99,,,-99.99,,2013-01-17 13:12:00,
2013-01-17 06:22:00,26.0,5.0,30.43,North,3,7.0,8.0,39,-99.99,,,-99.99,,2013-01-17 13:22:00,
2013-01-17 06:33:00,27.0,5.0,30.43,North,360,8.0,10.0,38,-99.99,,,-99.99,,2013-01-17 13:33:00,
2013-01-17 06:43:00,27.0,5.0,30.43,North,353,8.0,9.0,39,-99.99,,,-99.99,,2013-01-17 13:43:00,
2013-01-17 06:52:00,27.0,6.0,30.44,North,357,8.0,9.0,41,-99.99,,,-99.99,,2013-01-17 13:52:00,
2013-01-17 07:03:00,26.0,6.0,30.44,NNW,337,6.0,7.0,42,-99.99,,,-99.99,,2013-01-17 14:03:00,
2013-01-17 07:12:00,26.0,6.0,30.44,NNW,336,5.0,6.0,43,-99.99,,,-99.99,,2013-01-17 14:12:00,
2013-01-17 07:23:00,26.0,7.0,30.44,North,352,6.0,6.0,44,-99.99,,,-99.99,,2013-01-17 14:23:00,
2013-01-17 07:33:00,26.0,7.0,30.44,NNW,340,3.0,5.0,44,-99.99,,,-99.99,,2013-01-17 14:33:00,
2013-01-17 07:43:00,24.0,7.0,30.44,NNE,25,5.0,6.0,47,-99.99,,,-99.99,,2013-01-17 14:43:00,
2013-01-17 07:53:00,26.0,7.0,30.44,NNE,29,5.0,6.0,43,-99.99,,,-99.99,,2013-01-17 14:53:00,
2013-01-17 08:03:00,26.0,7.0,30.44,NE,42,5.0,5.0,43,-99.99,,,-99.99,,2013-01-17 15:03:00,
2013-01-17 08:12:00,27.0,7.0,30.45,NNE,15,3.0,5.0,42,-99.99,,,-99.99,,2013-01-17 15:12:00,
2013-01-17 08:22:00,27.0,7.0,30.46,West,267,3.0,5.0,43,-99.99,,,-99.99,,2013-01-17 15:22:00,
2013-01-17 08:33:00,28.0,8.0,30.46,NNW,331,2.0,3.0,41,-99.99,,,-99.99,,2013-01-17 15:33:00,
2013-01-17 08:43:00,29.0,7.0,30.46,NW,308,2.0,3.0,38,-99.99,,,-99.99,,2013-01-17 15:43:00,
2013-01-17 08:53:00,31.0,6.0,30.47,NNE,14,6.0,8.0,34,-99.99,,,-99.99,,2013-01-17 15:53:00,
2013-01-17 09:02:00,33.0,6.0,30.47,North,9,8.0,9.0,32,-99.99,,,-99.99,,2013-01-17 16:02:00,
2013-01-17 09:12:00,33.0,6.0,30.48,North,2,6.0,8.0,31,-99.99,,,-99.99,,2013-01-17 16:12:00,
2013-01-17 09:22:00,35.0,6.0,30.48,North,9,8.0,9.0,30,-99.99,,,-99.99,,2013-01-17 16:22:00,
2013-01-17 09:33:00,35.0,7.0,30.48,NNE,16,8.0,12.0,30,-99.99,,,-99.99,,2013-01-17 16:33:00,
2013-01-17 09:43:00,35.0,7.0,30.49,NNE,21,8.0,12.0,30,-99.99,,,-99.99,,2013-01-17 16:43:00,
2013-01-17 09:52:00,36.0,8.0,30.49,North,10,8.0,10.0,30,-99.99,,,-99.99,,2013-01-17 16:52:00,
2013-01-17 10:03:00,38.0,7.0,30.49,North,2,8.0,9.0,28,-99.99,,,-99.99,,2013-01-17 17:03:00,
2013-01-17 10:12:00,38.0,8.0,30.49,NNE,28,5.0,7.0,28,-99.99,,,-99.99,,2013-01-17 17:12:00,
2013-01-17 10:22:00,38.0,7.0,30.50,NE,38,7.0,9.0,27,-99.99,,,-99.99,,2013-01-17 17:22:00,
2013-01-17 10:33:00,39.0,8.0,30.50,NNE,15,6.0,9.0,27,-99.99,,,-99.99,,2013-01-17 17:33:00,
2013-01-17 10:43:00,40.0,8.0,30.50,NE,43,5.0,6.0,26,-99.99,,,-99.99,,2013-01-17 17:43:00,
2013-01-17 10:53:00,40.0,8.0,30.49,NNE,26,5.0,9.0,26,-99.99,,,-99.99,,2013-01-17 17:53:00,
2013-01-17 11:03:00,41.0,8.0,30.49,NE,48,5.0,6.0,25,-99.99,,,-99.99,,2013-01-17 18:03:00,
2013-01-17 11:12:00,42.0,8.0,30.48,ESE,114,3.0,5.0,25,-99.99,,,-99.99,,2013-01-17 18:12:00,
2013-01-17 11:22:00,42.0,9.0,30.48,NNE,33,5.0,5.0,25,-99.99,,,-99.99,,2013-01-17 18:22:00,
2013-01-17 11:33:00,43.0,9.0,30.47,ESE,104,2.0,5.0,24,-99.99,,,-99.99,,2013-01-17 18:33:00,
2013-01-17 11:43:00,44.0,8.0,30.47,ENE,63,5.0,6.0,23,-99.99,,,-99.99,,2013-01-17 18:43:00,
2013-01-17 11:53:00,44.0,9.0,30.46,ESE,103,5.0,6.0,23,-99.99,,,-99.99,,2013-01-17 18:53:00,
2013-01-17 12:03:00,46.0,9.0,30.46,ESE,109,3.0,5.0,22,-99.99,,,-99.99,,2013-01-17 19:03:00,
2013-01-17 12:12:00,46.0,9.0,30.45,ESE,109,6.0,9.0,22,-99.99,,,-99.99,,2013-01-17 19:12:00,
2013-01-17 12:23:00,47.0,9.0,30.44,ESE,122,5.0,8.0,21,-99.99,,,-99.99,,2013-01-17 19:23:00,
2013-01-17 12:33:00,49.0,10.0,30.44,ESE,123,9.0,13.0,21,-99.99,,,-99.99,,2013-01-17 19:33:00,
2013-01-17 12:43:00,49.0,11.0,30.43,SE,124,9.0,14.0,21,-99.99,,,-99.99,,2013-01-17 19:43:00,
2013-01-17 12:53:00,49.0,11.0,30.42,ESE,102,8.0,12.0,21,-99.99,,,-99.99,,2013-01-17 19:53:00,
2013-01-17 13:03:00,50.0,12.0,30.41,ESE,108,9.0,12.0,21,-99.99,,,-99.99,,2013-01-17 20:03:00,
2013-01-17 13:12:00,51.0,14.0,30.40,ESE,119,9.0,14.0,22,-99.99,,,-99.99,,2013-01-17 20:12:00,
2013-01-17 13:23:00,51.0,16.0,30.40,SE,138,15.0,18.0,24,-99.99,,,-99.99,,2013-01-17 20:23:00,
2013-01-17 13:33:00,52.0,17.0,30.39,SE,128,14.0,18.0,24,-99.99,,,-99.99,,2013-01-17 20:33:00,
2013-01-17 13:43:00,53.0,17.0,30.38,SE,124,14.0,21.0,24,-99.99,,,-99.99,,2013-01-17 20:43:00,
2013-01-17 13:53:00,53.0,19.0,30.38,ESE,120,18.0,23.0,26,-99.99,,,-99.99,,2013-01-17 20:53:00,
2013-01-17 14:03:00,53.0,18.0,30.37,SE,130,17.0,27.0,25,-99.99,,,-99.99,,2013-01-17 21:03:00,
2013-01-17 14:13:00,53.0,17.0,30.37,SE,127,15.0,27.0,24,-99.99,,,-99.99,,2013-01-17 21:13:00,
2013-01-17 14:23:00,54.0,17.0,30.37,ESE,114,16.0,22.0,23,-99.99,,,-99.99,,2013-01-17 21:23:00,
2013-01-17 14:33:00,54.0,17.0,30.36,ESE,106,16.0,21.0,23,-99.99,,,-99.99,,2013-01-17 21:33:00,
2013-01-17 14:43:00,54.0,17.0,30.36,ESE,121,16.0,20.0,23,-99.99,,,-99.99,,2013-01-17 21:43:00,
2013-01-17 14:52:00,55.0,19.0,30.35,ESE,108,16.0,22.0,24,-99.99,,,-99.99,,2013-01-17 21:52:00,
2013-01-17 15:03:00,55.0,19.0,30.35,ESE,114,16.0,23.0,24,-99.99,,,-99.99,,2013-01-17 22:03:00,
2013-01-17 15:12:00,55.0,19.0,30.35,ESE,104,13.0,17.0,24,-99.99,,,-99.99,,2013-01-17 22:12:00,
2013-01-17 15:23:00,56.0,19.0,30.35,ESE,103,14.0,17.0,24,-99.99,,,-99.99,,2013-01-17 22:23:00,
2013-01-17 15:33:00,55.0,20.0,30.34,SE,128,16.0,23.0,25,-99.99,,,-99.99,,2013-01-17 22:33:00,
2013-01-17 15:43:00,55.0,20.0,30.34,ESE,119,14.0,20.0,25,-99.99,,,-99.99,,2013-01-17 22:43:00,
2013-01-17 15:52:00,56.0,20.0,30.35,SE,131,16.0,22.0,25,-99.99,,,-99.99,,2013-01-17 22:52:00,
2013-01-17 16:03:00,56.0,20.0,30.35,SE,130,15.0,18.0,24,-99.99,,,-99.99,,2013-01-17 23:03:00,
2013-01-17 16:12:00,56.0,19.0,30.35,ESE,118,15.0,21.0,24,-99.99,,,-99.99,,2013-01-17 23:12:00,
2013-01-17 16:22:00,56.0,19.0,30.35,SE,126,13.0,18.0,24,-99.99,,,-99.99,,2013-01-17 23:22:00,
2013-01-17 16:33:00,56.0,19.0,30.35,SE,143,13.0,20.0,24,-99.99,,,-99.99,,2013-01-17 23:33:00,
2013-01-17 16:43:00,55.0,19.0,30.35,SE,131,15.0,22.0,24,-99.99,,,-99.99,,2013-01-17 23:43:00,
2013-01-17 16:53:00,55.0,19.0,30.35,SE,129,10.0,15.0,24,-99.99,,,-99.99,,2013-01-17 23:53:00,
2013-01-17 17:02:00,55.0,19.0,30.36,ESE,123,12.0,16.0,24,-99.99,,,-99.99,,2013-01-18 00:02:00,
2013-01-17 17:12:00,54.0,19.0,30.36,SE,131,12.0,15.0,25,-99.99,,,-99.99,,2013-01-18 00:12:00,
2013-01-17 17:23:00,54.0,19.0,30.36,SE,127,14.0,17.0,25,-99.99,,,-99.99,,2013-01-18 00:23:00,
2013-01-17 17:32:00,54.0,20.0,30.36,SE,127,13.0,17.0,26,-99.99,,,-99.99,,2013-01-18 00:32:00,
2013-01-17 17:42:00,53.0,20.0,30.36,SE,126,9.0,13.0,27,-99.99,,,-99.99,,2013-01-18 00:42:00,
2013-01-17 17:52:00,51.0,19.0,30.37,SE,127,8.0,10.0,28,-99.99,,,-99.99,,2013-01-18 00:52:00,
2013-01-17 18:03:00,50.0,19.0,30.37,SE,128,8.0,12.0,29,-99.99,,,-99.99,,2013-01-18 01:03:00,
2013-01-17 18:12:00,49.0,19.0,30.37,ESE,119,8.0,9.0,30,-99.99,,,-99.99,,2013-01-18 01:12:00,
2013-01-17 18:23:00,49.0,20.0,30.37,ESE,120,9.0,12.0,31,-99.99,,,-99.99,,2013-01-18 01:23:00,
2013-01-17 18:33:00,49.0,20.0,30.38,ESE,122,8.0,10.0,32,-99.99,,,-99.99,,2013-01-18 01:33:00,
2013-01-17 18:43:00,49.0,20.0,30.38,ESE,122,8.0,10.0,32,-99.99,,,-99.99,,2013-01-18 01:43:00,
2013-01-17 18:52:00,48.0,20.0,30.37,ESE,121,10.0,13.0,33,-99.99,,,-99.99,,2013-01-18 01:52:00,
2013-01-17 19:02:00,48.0,21.0,30.37,ESE,115,10.0,14.0,33,-99.99,,,-99.99,,2013-01-18 02:02:00,
2013-01-17 19:12:00,48.0,20.0,30.37,ESE,119,9.0,10.0,33,-99.99,,,-99.99,,2013-01-18 02:12:00,
2013-01-17 19:22:00,48.0,20.0,30.38,ESE,123,10.0,14.0,33,-99.99,,,-99.99,,2013-01-18 02:22:00,
2013-01-17 19:32:00,48.0,20.0,30.38,SE,124,10.0,13.0,33,-99.99,,,-99.99,,2013-01-18 02:32:00,
2013-01-17 19:42:00,48.0,20.0,30.38,SE,127,9.0,12.0,33,-99.99,,,-99.99,,2013-01-18 02:42:00,
2013-01-17 19:52:00,47.0,20.0,30.38,SE,129,7.0,8.0,34,-99.99,,,-99.99,,2013-01-18 02:52:00,
2013-01-17 20:02:00,46.0,20.0,30.38,ESE,123,7.0,7.0,36,-99.99,,,-99.99,,2013-01-18 03:02:00,
2013-01-17 20:12:00,45.0,20.0,30.38,SE,128,6.0,7.0,36,-99.99,,,-99.99,,2013-01-18 03:12:00,
2013-01-17 20:22:00,45.0,20.0,30.38,SE,136,7.0,8.0,37,-99.99,,,-99.99,,2013-01-18 03:22:00,
2013-01-17 20:33:00,44.0,20.0,30.38,SE,128,7.0,8.0,37,-99.99,,,-99.99,,2013-01-18 03:33:00,
2013-01-17 20:42:00,44.0,20.0,30.39,SE,143,7.0,8.0,38,-99.99,,,-99.99,,2013-01-18 03:42:00,
2013-01-17 20:52:00,44.0,20.0,30.39,SSE,155,8.0,9.0,38,-99.99,,,-99.99,,2013-01-18 03:52:00,
2013-01-17 21:02:00,44.0,20.0,30.39,SSE,150,7.0,9.0,38,-99.99,,,-99.99,,2013-01-18 04:02:00,
2013-01-17 21:12:00,44.0,20.0,30.39,SE,143,8.0,10.0,37,-99.99,,,-99.99,,2013-01-18 04:12:00,
2013-01-17 21:22:00,44.0,20.0,30.39,SSE,148,8.0,12.0,37,-99.99,,,-99.99,,2013-01-18 04:22:00,
2013-01-17 21:32:00,45.0,20.0,30.38,SE,141,8.0,12.0,37,-99.99,,,-99.99,,2013-01-18 04:32:00,
2013-01-17 21:42:00,44.0,20.0,30.38,SE,145,9.0,12.0,38,-99.99,,,-99.99,,2013-01-18 04:42:00,
2013-01-17 21:52:00,44.0,20.0,30.38,SE,146,9.0,12.0,38,-99.99,,,-99.99,,2013-01-18 04:52:00,
2013-01-17 22:03:00,43.0,20.0,30.38,SSE,153,8.0,10.0,39,-99.99,,,-99.99,,2013-01-18 05:03:00,
2013-01-17 22:12:00,43.0,20.0,30.38,SSE,150,8.0,10.0,40,-99.99,,,-99.99,,2013-01-18 05:12:00,
2013-01-17 22:22:00,42.0,20.0,30.38,SE,141,6.0,7.0,40,-99.99,,,-99.99,,2013-01-18 05:22:00,
2013-01-17 22:33:00,42.0,20.0,30.38,SE,125,8.0,10.0,42,-99.99,,,-99.99,,2013-01-18 05:33:00,
2013-01-17 22:42:00,42.0,20.0,30.38,SE,126,9.0,12.0,41,-99.99,,,-99.99,,2013-01-18 05:42:00,
2013-01-17 22:52:00,42.0,20.0,30.38,SE,125,9.0,12.0,41,-99.99,,,-99.99,,2013-01-18 05:52:00,
2013-01-17 23:02:00,42.0,21.0,30.37,ESE,123,8.0,10.0,42,-99.99,,,-99.99,,2013-01-18 06:02:00,
2013-01-17 23:12:00,42.0,22.0,30.37,ESE,117,7.0,9.0,44,-99.99,,,-99.99,,2013-01-18 06:12:00,
2013-01-17 23:22:00,42.0,22.0,30.37,ESE,103,7.0,9.0,44,-99.99,,,-99.99,,2013-01-18 06:22:00,
2013-01-17 23:32:00,42.0,21.0,30.37,ESE,111,8.0,10.0,43,-99.99,,,-99.99,,2013-01-18 06:32:00,
2013-01-17 23:43:00,42.0,22.0,30.37,ESE,106,8.0,12.0,44,-99.99,,,-99.99,,2013-01-18 06:43:00,
2013-01-17 23:52:00,42.0,22.0,30.36,ESE,118,9.0,13.0,44,-99.99,,,-99.99,,2013-01-18 06:52:00,